sensor_id;sensor_type;location;lat;lon;timestamp;P1;durP1;ratioP1;P2;durP2;ratioP2
75774;SDS011;64505;51.458;7.556;2023-05-07T00:00:31;8.70;;;5.20;;
75774;SDS011;64505;51.458;7.556;2023-05-07T00:02:35;7.05;;;4.30;;
75774;SDS011;64505;51.458;7.556;2023-05-07T00:04:37;7.47;;;4.90;;
75774;SDS011;64505;51.458;7.556;2023-05-07T00:06:40;8.88;;;4.70;;
75774;SDS011;64505;51.458;7.556;2023-05-07T00:08:41;8.20;;;5.05;;
75774;SDS011;64505;51.458;7.556;2023-05-07T00:10:43;9.40;;;4.88;;
75774;SDS011;64505;51.458;7.556;2023-05-07T00:12:44;9.18;;;5.32;;
75774;SDS011;64505;51.458;7.556;2023-05-07T00:14:46;7.75;;;4.57;;
75774;SDS011;64505;51.458;7.556;2023-05-07T00:16:48;7.68;;;4.72;;
75774;SDS011;64505;51.458;7.556;2023-05-07T00:18:50;7.78;;;4.90;;
75774;SDS011;64505;51.458;7.556;2023-05-07T00:20:51;8.52;;;5.18;;
75774;SDS011;64505;51.458;7.556;2023-05-07T00:22:53;8.25;;;4.68;;
75774;SDS011;64505;51.458;7.556;2023-05-07T00:24:55;7.43;;;5.05;;
75774;SDS011;64505;51.458;7.556;2023-05-07T00:26:56;8.27;;;5.20;;
75774;SDS011;64505;51.458;7.556;2023-05-07T00:28:59;9.10;;;5.05;;
75774;SDS011;64505;51.458;7.556;2023-05-07T00:31:00;6.80;;;4.47;;
75774;SDS011;64505;51.458;7.556;2023-05-07T00:33:02;9.20;;;4.82;;
75774;SDS011;64505;51.458;7.556;2023-05-07T00:35:04;9.27;;;4.53;;
75774;SDS011;64505;51.458;7.556;2023-05-07T00:37:06;8.55;;;4.93;;
75774;SDS011;64505;51.458;7.556;2023-05-07T00:39:11;8.50;;;4.22;;
75774;SDS011;64505;51.458;7.556;2023-05-07T00:41:12;6.70;;;4.63;;
75774;SDS011;64505;51.458;7.556;2023-05-07T00:43:14;8.32;;;4.57;;
75774;SDS011;64505;51.458;7.556;2023-05-07T00:45:16;9.52;;;4.88;;
75774;SDS011;64505;51.458;7.556;2023-05-07T00:47:18;8.15;;;5.00;;
75774;SDS011;64505;51.458;7.556;2023-05-07T00:49:19;7.00;;;4.13;;
75774;SDS011;64505;51.458;7.556;2023-05-07T00:51:21;6.85;;;4.53;;
75774;SDS011;64505;51.458;7.556;2023-05-07T00:53:24;9.93;;;4.43;;
75774;SDS011;64505;51.458;7.556;2023-05-07T00:55:26;8.95;;;4.78;;
75774;SDS011;64505;51.458;7.556;2023-05-07T00:57:28;9.40;;;4.32;;
75774;SDS011;64505;51.458;7.556;2023-05-07T00:59:33;10.13;;;4.75;;
75774;SDS011;64505;51.458;7.556;2023-05-07T01:01:34;6.63;;;4.22;;
75774;SDS011;64505;51.458;7.556;2023-05-07T01:03:38;6.70;;;3.83;;
75774;SDS011;64505;51.458;7.556;2023-05-07T01:05:41;7.07;;;4.13;;
75774;SDS011;64505;51.458;7.556;2023-05-07T01:07:45;6.40;;;4.13;;
75774;SDS011;64505;51.458;7.556;2023-05-07T01:10:11;8.75;;;3.90;;
75774;SDS011;64505;51.458;7.556;2023-05-07T01:12:14;5.82;;;3.97;;
75774;SDS011;64505;51.458;7.556;2023-05-07T01:14:16;5.97;;;4.00;;
75774;SDS011;64505;51.458;7.556;2023-05-07T01:16:19;7.43;;;4.07;;
75774;SDS011;64505;51.458;7.556;2023-05-07T01:18:21;7.38;;;3.78;;
75774;SDS011;64505;51.458;7.556;2023-05-07T01:20:23;6.40;;;3.63;;
75774;SDS011;64505;51.458;7.556;2023-05-07T01:22:32;6.20;;;3.72;;
75774;SDS011;64505;51.458;7.556;2023-05-07T01:24:35;6.28;;;3.60;;
75774;SDS011;64505;51.458;7.556;2023-05-07T01:26:39;6.75;;;3.25;;
75774;SDS011;64505;51.458;7.556;2023-05-07T01:28:41;5.55;;;3.42;;
75774;SDS011;64505;51.458;7.556;2023-05-07T01:30:42;6.43;;;3.13;;
75774;SDS011;64505;51.458;7.556;2023-05-07T01:34:53;5.35;;;2.67;;
75774;SDS011;64505;51.458;7.556;2023-05-07T01:36:56;5.63;;;2.45;;
75774;SDS011;64505;51.458;7.556;2023-05-07T01:38:59;4.65;;;2.70;;
75774;SDS011;64505;51.458;7.556;2023-05-07T01:41:03;4.13;;;2.20;;
75774;SDS011;64505;51.458;7.556;2023-05-07T01:43:05;5.63;;;2.50;;
75774;SDS011;64505;51.458;7.556;2023-05-07T01:45:07;5.75;;;2.38;;
75774;SDS011;64505;51.458;7.556;2023-05-07T01:47:09;4.60;;;2.42;;
75774;SDS011;64505;51.458;7.556;2023-05-07T01:49:11;3.97;;;2.25;;
75774;SDS011;64505;51.458;7.556;2023-05-07T01:51:13;6.90;;;2.50;;
75774;SDS011;64505;51.458;7.556;2023-05-07T01:53:15;5.47;;;2.63;;
75774;SDS011;64505;51.458;7.556;2023-05-07T01:55:16;3.92;;;2.38;;
75774;SDS011;64505;51.458;7.556;2023-05-07T01:57:18;5.57;;;2.70;;
75774;SDS011;64505;51.458;7.556;2023-05-07T01:59:20;6.38;;;2.75;;
75774;SDS011;64505;51.458;7.556;2023-05-07T02:01:22;5.50;;;2.60;;
75774;SDS011;64505;51.458;7.556;2023-05-07T02:03:23;5.68;;;2.90;;
75774;SDS011;64505;51.458;7.556;2023-05-07T02:05:25;4.35;;;2.60;;
75774;SDS011;64505;51.458;7.556;2023-05-07T02:07:27;6.22;;;2.78;;
75774;SDS011;64505;51.458;7.556;2023-05-07T02:09:29;5.72;;;2.60;;
75774;SDS011;64505;51.458;7.556;2023-05-07T02:11:31;5.75;;;3.03;;
75774;SDS011;64505;51.458;7.556;2023-05-07T02:13:33;5.30;;;3.05;;
75774;SDS011;64505;51.458;7.556;2023-05-07T02:15:35;5.70;;;3.10;;
75774;SDS011;64505;51.458;7.556;2023-05-07T02:17:57;5.68;;;3.10;;
75774;SDS011;64505;51.458;7.556;2023-05-07T02:20:06;5.80;;;2.70;;
75774;SDS011;64505;51.458;7.556;2023-05-07T02:22:14;5.88;;;3.10;;
75774;SDS011;64505;51.458;7.556;2023-05-07T02:24:16;6.35;;;3.15;;
75774;SDS011;64505;51.458;7.556;2023-05-07T02:26:18;5.70;;;2.63;;
75774;SDS011;64505;51.458;7.556;2023-05-07T02:28:19;6.75;;;2.75;;
75774;SDS011;64505;51.458;7.556;2023-05-07T02:30:21;5.97;;;2.55;;
75774;SDS011;64505;51.458;7.556;2023-05-07T02:32:23;3.92;;;2.58;;
75774;SDS011;64505;51.458;7.556;2023-05-07T02:34:24;5.13;;;2.53;;
75774;SDS011;64505;51.458;7.556;2023-05-07T02:36:26;4.43;;;2.60;;
75774;SDS011;64505;51.458;7.556;2023-05-07T02:38:27;5.78;;;2.42;;
75774;SDS011;64505;51.458;7.556;2023-05-07T02:40:29;4.80;;;2.17;;
75774;SDS011;64505;51.458;7.556;2023-05-07T02:42:31;5.05;;;2.17;;
75774;SDS011;64505;51.458;7.556;2023-05-07T02:44:32;4.88;;;2.25;;
75774;SDS011;64505;51.458;7.556;2023-05-07T02:46:34;4.32;;;2.25;;
75774;SDS011;64505;51.458;7.556;2023-05-07T02:48:36;9.00;;;2.55;;
75774;SDS011;64505;51.458;7.556;2023-05-07T02:50:37;5.45;;;2.00;;
75774;SDS011;64505;51.458;7.556;2023-05-07T02:52:39;5.00;;;2.13;;
75774;SDS011;64505;51.458;7.556;2023-05-07T02:54:43;4.82;;;2.08;;
75774;SDS011;64505;51.458;7.556;2023-05-07T02:56:44;6.65;;;2.10;;
75774;SDS011;64505;51.458;7.556;2023-05-07T02:58:46;4.05;;;1.85;;
75774;SDS011;64505;51.458;7.556;2023-05-07T03:00:48;4.30;;;1.90;;
75774;SDS011;64505;51.458;7.556;2023-05-07T03:02:49;4.88;;;1.77;;
75774;SDS011;64505;51.458;7.556;2023-05-07T03:04:51;3.90;;;1.85;;
75774;SDS011;64505;51.458;7.556;2023-05-07T03:06:52;4.55;;;1.70;;
75774;SDS011;64505;51.458;7.556;2023-05-07T03:08:54;3.55;;;1.98;;
75774;SDS011;64505;51.458;7.556;2023-05-07T03:10:55;3.40;;;1.80;;
75774;SDS011;64505;51.458;7.556;2023-05-07T03:12:57;5.35;;;1.80;;
75774;SDS011;64505;51.458;7.556;2023-05-07T03:14:59;4.68;;;2.50;;
75774;SDS011;64505;51.458;7.556;2023-05-07T03:17:00;3.72;;;1.80;;
75774;SDS011;64505;51.458;7.556;2023-05-07T03:19:02;5.28;;;1.90;;
75774;SDS011;64505;51.458;7.556;2023-05-07T03:21:04;4.57;;;1.90;;
75774;SDS011;64505;51.458;7.556;2023-05-07T03:23:05;3.65;;;1.77;;
75774;SDS011;64505;51.458;7.556;2023-05-07T03:25:08;4.22;;;2.05;;
75774;SDS011;64505;51.458;7.556;2023-05-07T03:27:10;4.78;;;1.88;;
75774;SDS011;64505;51.458;7.556;2023-05-07T03:29:11;5.63;;;2.00;;
75774;SDS011;64505;51.458;7.556;2023-05-07T03:31:13;5.03;;;1.95;;
75774;SDS011;64505;51.458;7.556;2023-05-07T03:33:14;6.97;;;2.20;;
75774;SDS011;64505;51.458;7.556;2023-05-07T03:35:16;4.45;;;1.80;;
75774;SDS011;64505;51.458;7.556;2023-05-07T03:37:18;4.57;;;2.10;;
75774;SDS011;64505;51.458;7.556;2023-05-07T03:39:20;4.43;;;1.77;;
75774;SDS011;64505;51.458;7.556;2023-05-07T03:41:21;6.60;;;2.40;;
75774;SDS011;64505;51.458;7.556;2023-05-07T03:43:23;4.20;;;2.47;;
75774;SDS011;64505;51.458;7.556;2023-05-07T03:45:25;3.45;;;2.10;;
75774;SDS011;64505;51.458;7.556;2023-05-07T03:47:26;5.40;;;2.42;;
75774;SDS011;64505;51.458;7.556;2023-05-07T03:49:28;5.03;;;2.28;;
75774;SDS011;64505;51.458;7.556;2023-05-07T03:51:30;4.30;;;2.38;;
75774;SDS011;64505;51.458;7.556;2023-05-07T03:53:31;3.95;;;1.92;;
75774;SDS011;64505;51.458;7.556;2023-05-07T03:55:33;5.88;;;2.05;;
75774;SDS011;64505;51.458;7.556;2023-05-07T03:57:35;4.78;;;2.25;;
75774;SDS011;64505;51.458;7.556;2023-05-07T03:59:36;5.38;;;2.10;;
75774;SDS011;64505;51.458;7.556;2023-05-07T04:01:38;6.20;;;2.17;;
75774;SDS011;64505;51.458;7.556;2023-05-07T04:03:39;6.22;;;1.85;;
75774;SDS011;64505;51.458;7.556;2023-05-07T04:05:41;4.72;;;2.22;;
75774;SDS011;64505;51.458;7.556;2023-05-07T04:07:43;5.68;;;2.03;;
75774;SDS011;64505;51.458;7.556;2023-05-07T04:09:45;7.03;;;2.70;;
75774;SDS011;64505;51.458;7.556;2023-05-07T04:11:47;5.45;;;2.50;;
75774;SDS011;64505;51.458;7.556;2023-05-07T04:13:48;5.45;;;2.70;;
75774;SDS011;64505;51.458;7.556;2023-05-07T04:15:51;4.20;;;2.55;;
75774;SDS011;64505;51.458;7.556;2023-05-07T04:17:53;4.68;;;3.00;;
75774;SDS011;64505;51.458;7.556;2023-05-07T04:19:54;6.65;;;2.80;;
75774;SDS011;64505;51.458;7.556;2023-05-07T04:21:56;5.10;;;3.00;;
75774;SDS011;64505;51.458;7.556;2023-05-07T04:23:58;5.32;;;3.15;;
75774;SDS011;64505;51.458;7.556;2023-05-07T04:25:59;5.00;;;3.08;;
75774;SDS011;64505;51.458;7.556;2023-05-07T04:28:02;5.15;;;2.67;;
75774;SDS011;64505;51.458;7.556;2023-05-07T04:30:03;5.32;;;3.05;;
75774;SDS011;64505;51.458;7.556;2023-05-07T04:32:05;7.18;;;3.42;;
75774;SDS011;64505;51.458;7.556;2023-05-07T04:34:07;6.22;;;3.03;;
75774;SDS011;64505;51.458;7.556;2023-05-07T04:36:10;7.28;;;3.38;;
75774;SDS011;64505;51.458;7.556;2023-05-07T04:38:12;5.88;;;2.97;;
75774;SDS011;64505;51.458;7.556;2023-05-07T04:40:13;5.00;;;3.08;;
75774;SDS011;64505;51.458;7.556;2023-05-07T04:42:15;5.38;;;2.85;;
75774;SDS011;64505;51.458;7.556;2023-05-07T04:44:18;7.32;;;3.08;;
75774;SDS011;64505;51.458;7.556;2023-05-07T04:46:19;7.85;;;3.60;;
75774;SDS011;64505;51.458;7.556;2023-05-07T04:48:21;6.45;;;3.10;;
75774;SDS011;64505;51.458;7.556;2023-05-07T04:50:23;5.30;;;3.15;;
75774;SDS011;64505;51.458;7.556;2023-05-07T04:52:25;7.68;;;3.00;;
75774;SDS011;64505;51.458;7.556;2023-05-07T04:54:27;5.70;;;3.47;;
75774;SDS011;64505;51.458;7.556;2023-05-07T04:56:29;4.30;;;2.60;;
75774;SDS011;64505;51.458;7.556;2023-05-07T04:58:31;5.63;;;2.97;;
75774;SDS011;64505;51.458;7.556;2023-05-07T05:00:33;4.65;;;3.15;;
75774;SDS011;64505;51.458;7.556;2023-05-07T05:02:34;5.22;;;3.17;;
75774;SDS011;64505;51.458;7.556;2023-05-07T05:04:36;6.00;;;3.25;;
75774;SDS011;64505;51.458;7.556;2023-05-07T05:06:39;4.90;;;3.17;;
75774;SDS011;64505;51.458;7.556;2023-05-07T05:08:41;5.55;;;3.10;;
75774;SDS011;64505;51.458;7.556;2023-05-07T05:10:42;5.55;;;3.20;;
75774;SDS011;64505;51.458;7.556;2023-05-07T05:12:44;5.78;;;2.92;;
75774;SDS011;64505;51.458;7.556;2023-05-07T05:14:46;6.90;;;2.88;;
75774;SDS011;64505;51.458;7.556;2023-05-07T05:16:48;5.82;;;2.97;;
75774;SDS011;64505;51.458;7.556;2023-05-07T05:18:49;8.10;;;3.30;;
75774;SDS011;64505;51.458;7.556;2023-05-07T05:20:53;7.15;;;3.10;;
75774;SDS011;64505;51.458;7.556;2023-05-07T05:22:54;6.55;;;3.33;;
75774;SDS011;64505;51.458;7.556;2023-05-07T05:24:56;4.93;;;3.00;;
75774;SDS011;64505;51.458;7.556;2023-05-07T05:26:57;6.78;;;2.70;;
75774;SDS011;64505;51.458;7.556;2023-05-07T05:29:02;6.07;;;3.17;;
75774;SDS011;64505;51.458;7.556;2023-05-07T05:31:04;5.25;;;2.88;;
75774;SDS011;64505;51.458;7.556;2023-05-07T05:33:06;5.70;;;2.90;;
75774;SDS011;64505;51.458;7.556;2023-05-07T05:35:08;6.20;;;2.85;;
75774;SDS011;64505;51.458;7.556;2023-05-07T05:37:09;7.00;;;3.35;;
75774;SDS011;64505;51.458;7.556;2023-05-07T05:39:11;6.97;;;2.70;;
75774;SDS011;64505;51.458;7.556;2023-05-07T05:41:13;7.28;;;2.95;;
75774;SDS011;64505;51.458;7.556;2023-05-07T05:43:15;6.10;;;3.00;;
75774;SDS011;64505;51.458;7.556;2023-05-07T05:45:17;8.63;;;3.00;;
75774;SDS011;64505;51.458;7.556;2023-05-07T05:47:18;6.20;;;3.00;;
75774;SDS011;64505;51.458;7.556;2023-05-07T05:49:20;8.02;;;3.10;;
75774;SDS011;64505;51.458;7.556;2023-05-07T05:51:22;7.13;;;3.30;;
75774;SDS011;64505;51.458;7.556;2023-05-07T05:53:24;7.07;;;3.10;;
75774;SDS011;64505;51.458;7.556;2023-05-07T05:55:26;5.70;;;3.00;;
75774;SDS011;64505;51.458;7.556;2023-05-07T05:57:28;6.80;;;3.00;;
75774;SDS011;64505;51.458;7.556;2023-05-07T05:59:29;6.50;;;3.22;;
75774;SDS011;64505;51.458;7.556;2023-05-07T06:01:32;4.40;;;2.70;;
75774;SDS011;64505;51.458;7.556;2023-05-07T06:03:33;5.10;;;2.85;;
75774;SDS011;64505;51.458;7.556;2023-05-07T06:05:35;5.70;;;2.70;;
75774;SDS011;64505;51.458;7.556;2023-05-07T06:07:36;7.13;;;2.60;;
75774;SDS011;64505;51.458;7.556;2023-05-07T06:09:38;4.53;;;2.42;;
75774;SDS011;64505;51.458;7.556;2023-05-07T06:11:39;9.00;;;2.92;;
75774;SDS011;64505;51.458;7.556;2023-05-07T06:13:42;6.10;;;2.90;;
75774;SDS011;64505;51.458;7.556;2023-05-07T06:15:43;6.63;;;2.88;;
75774;SDS011;64505;51.458;7.556;2023-05-07T06:17:45;5.18;;;2.70;;
75774;SDS011;64505;51.458;7.556;2023-05-07T06:19:46;5.25;;;2.70;;
75774;SDS011;64505;51.458;7.556;2023-05-07T06:21:48;6.70;;;2.58;;
75774;SDS011;64505;51.458;7.556;2023-05-07T06:23:50;7.05;;;3.70;;
75774;SDS011;64505;51.458;7.556;2023-05-07T06:25:53;5.78;;;2.70;;
75774;SDS011;64505;51.458;7.556;2023-05-07T06:27:54;6.93;;;2.83;;
75774;SDS011;64505;51.458;7.556;2023-05-07T06:29:56;5.15;;;2.45;;
75774;SDS011;64505;51.458;7.556;2023-05-07T06:32:05;4.43;;;2.50;;
75774;SDS011;64505;51.458;7.556;2023-05-07T06:34:08;4.78;;;2.42;;
75774;SDS011;64505;51.458;7.556;2023-05-07T06:36:09;5.20;;;2.53;;
75774;SDS011;64505;51.458;7.556;2023-05-07T06:38:11;4.78;;;2.60;;
75774;SDS011;64505;51.458;7.556;2023-05-07T06:40:13;5.57;;;2.70;;
75774;SDS011;64505;51.458;7.556;2023-05-07T06:42:15;4.32;;;2.30;;
75774;SDS011;64505;51.458;7.556;2023-05-07T06:44:16;7.00;;;3.05;;
75774;SDS011;64505;51.458;7.556;2023-05-07T06:46:18;5.13;;;2.85;;
75774;SDS011;64505;51.458;7.556;2023-05-07T06:48:19;5.25;;;2.85;;
75774;SDS011;64505;51.458;7.556;2023-05-07T06:50:21;5.70;;;2.67;;
75774;SDS011;64505;51.458;7.556;2023-05-07T06:52:23;4.07;;;2.53;;
75774;SDS011;64505;51.458;7.556;2023-05-07T06:54:24;6.10;;;3.13;;
75774;SDS011;64505;51.458;7.556;2023-05-07T06:56:26;5.97;;;2.75;;
75774;SDS011;64505;51.458;7.556;2023-05-07T06:58:27;5.90;;;2.95;;
75774;SDS011;64505;51.458;7.556;2023-05-07T07:00:29;4.72;;;2.60;;
75774;SDS011;64505;51.458;7.556;2023-05-07T07:02:31;5.65;;;2.70;;
75774;SDS011;64505;51.458;7.556;2023-05-07T07:04:33;5.38;;;2.60;;
75774;SDS011;64505;51.458;7.556;2023-05-07T07:06:35;6.32;;;2.60;;
75774;SDS011;64505;51.458;7.556;2023-05-07T07:08:36;4.90;;;2.45;;
75774;SDS011;64505;51.458;7.556;2023-05-07T07:10:39;6.18;;;2.70;;
75774;SDS011;64505;51.458;7.556;2023-05-07T07:12:41;8.73;;;3.13;;
75774;SDS011;64505;51.458;7.556;2023-05-07T07:14:43;4.93;;;2.70;;
75774;SDS011;64505;51.458;7.556;2023-05-07T07:16:44;5.60;;;2.97;;
75774;SDS011;64505;51.458;7.556;2023-05-07T07:18:47;5.45;;;2.50;;
75774;SDS011;64505;51.458;7.556;2023-05-07T07:20:49;5.00;;;2.65;;
75774;SDS011;64505;51.458;7.556;2023-05-07T07:22:51;4.22;;;2.80;;
75774;SDS011;64505;51.458;7.556;2023-05-07T07:24:52;5.97;;;3.15;;
75774;SDS011;64505;51.458;7.556;2023-05-07T07:26:54;8.75;;;3.10;;
75774;SDS011;64505;51.458;7.556;2023-05-07T07:28:56;5.07;;;3.08;;
75774;SDS011;64505;51.458;7.556;2023-05-07T07:30:58;6.10;;;3.20;;
75774;SDS011;64505;51.458;7.556;2023-05-07T07:32:59;6.00;;;2.60;;
75774;SDS011;64505;51.458;7.556;2023-05-07T07:35:03;5.53;;;2.80;;
75774;SDS011;64505;51.458;7.556;2023-05-07T07:37:05;5.28;;;2.92;;
75774;SDS011;64505;51.458;7.556;2023-05-07T07:39:07;5.13;;;2.70;;
75774;SDS011;64505;51.458;7.556;2023-05-07T07:41:09;8.05;;;2.95;;
75774;SDS011;64505;51.458;7.556;2023-05-07T07:43:10;5.30;;;2.78;;
75774;SDS011;64505;51.458;7.556;2023-05-07T07:45:12;6.07;;;2.80;;
75774;SDS011;64505;51.458;7.556;2023-05-07T07:47:13;6.65;;;2.67;;
75774;SDS011;64505;51.458;7.556;2023-05-07T07:49:15;5.82;;;2.90;;
75774;SDS011;64505;51.458;7.556;2023-05-07T07:51:20;6.20;;;2.78;;
75774;SDS011;64505;51.458;7.556;2023-05-07T07:53:21;5.10;;;2.85;;
75774;SDS011;64505;51.458;7.556;2023-05-07T07:55:23;5.60;;;2.60;;
75774;SDS011;64505;51.458;7.556;2023-05-07T07:57:24;5.18;;;2.85;;
75774;SDS011;64505;51.458;7.556;2023-05-07T07:59:26;6.63;;;2.60;;
75774;SDS011;64505;51.458;7.556;2023-05-07T08:01:29;5.45;;;2.85;;
75774;SDS011;64505;51.458;7.556;2023-05-07T08:03:31;5.22;;;2.35;;
75774;SDS011;64505;51.458;7.556;2023-05-07T08:05:33;6.72;;;2.65;;
75774;SDS011;64505;51.458;7.556;2023-05-07T08:07:35;5.10;;;2.55;;
75774;SDS011;64505;51.458;7.556;2023-05-07T08:09:37;4.88;;;2.45;;
75774;SDS011;64505;51.458;7.556;2023-05-07T08:11:41;6.00;;;2.30;;
75774;SDS011;64505;51.458;7.556;2023-05-07T08:13:42;4.93;;;2.50;;
75774;SDS011;64505;51.458;7.556;2023-05-07T08:15:44;5.28;;;2.33;;
75774;SDS011;64505;51.458;7.556;2023-05-07T08:17:46;5.13;;;2.13;;
75774;SDS011;64505;51.458;7.556;2023-05-07T08:19:48;5.53;;;2.50;;
75774;SDS011;64505;51.458;7.556;2023-05-07T08:21:49;4.78;;;2.60;;
75774;SDS011;64505;51.458;7.556;2023-05-07T08:23:54;6.25;;;2.33;;
75774;SDS011;64505;51.458;7.556;2023-05-07T08:25:58;5.57;;;2.42;;
75774;SDS011;64505;51.458;7.556;2023-05-07T08:28:00;4.90;;;2.33;;
75774;SDS011;64505;51.458;7.556;2023-05-07T08:30:02;4.97;;;2.20;;
75774;SDS011;64505;51.458;7.556;2023-05-07T08:32:04;6.13;;;2.42;;
75774;SDS011;64505;51.458;7.556;2023-05-07T08:34:06;4.38;;;2.30;;
75774;SDS011;64505;51.458;7.556;2023-05-07T08:36:10;3.95;;;2.20;;
75774;SDS011;64505;51.458;7.556;2023-05-07T08:38:11;4.95;;;2.10;;
75774;SDS011;64505;51.458;7.556;2023-05-07T08:40:13;3.63;;;1.90;;
75774;SDS011;64505;51.458;7.556;2023-05-07T08:42:15;4.05;;;1.92;;
75774;SDS011;64505;51.458;7.556;2023-05-07T08:44:18;4.38;;;2.15;;
75774;SDS011;64505;51.458;7.556;2023-05-07T08:46:23;6.38;;;2.00;;
75774;SDS011;64505;51.458;7.556;2023-05-07T08:48:26;4.03;;;2.10;;
75774;SDS011;64505;51.458;7.556;2023-05-07T08:50:30;5.97;;;2.22;;
75774;SDS011;64505;51.458;7.556;2023-05-07T08:52:32;4.95;;;2.10;;
75774;SDS011;64505;51.458;7.556;2023-05-07T08:54:34;3.10;;;1.80;;
75774;SDS011;64505;51.458;7.556;2023-05-07T08:56:38;5.57;;;2.45;;
75774;SDS011;64505;51.458;7.556;2023-05-07T08:58:41;5.47;;;2.40;;
75774;SDS011;64505;51.458;7.556;2023-05-07T09:00:44;5.85;;;2.72;;
75774;SDS011;64505;51.458;7.556;2023-05-07T09:02:45;4.80;;;2.83;;
75774;SDS011;64505;51.458;7.556;2023-05-07T09:04:47;7.90;;;3.38;;
75774;SDS011;64505;51.458;7.556;2023-05-07T09:06:49;6.35;;;2.75;;
75774;SDS011;64505;51.458;7.556;2023-05-07T09:08:52;5.05;;;2.50;;
75774;SDS011;64505;51.458;7.556;2023-05-07T09:10:55;6.32;;;2.55;;
75774;SDS011;64505;51.458;7.556;2023-05-07T09:12:57;6.38;;;2.88;;
75774;SDS011;64505;51.458;7.556;2023-05-07T09:14:58;8.63;;;3.05;;
75774;SDS011;64505;51.458;7.556;2023-05-07T09:17:00;6.97;;;3.90;;
75774;SDS011;64505;51.458;7.556;2023-05-07T09:19:02;7.35;;;3.75;;
75774;SDS011;64505;51.458;7.556;2023-05-07T09:21:04;6.88;;;3.90;;
75774;SDS011;64505;51.458;7.556;2023-05-07T09:23:06;7.22;;;4.85;;
75774;SDS011;64505;51.458;7.556;2023-05-07T09:25:09;9.02;;;5.13;;
75774;SDS011;64505;51.458;7.556;2023-05-07T09:27:11;8.00;;;4.63;;
75774;SDS011;64505;51.458;7.556;2023-05-07T09:29:15;11.75;;;5.35;;
75774;SDS011;64505;51.458;7.556;2023-05-07T09:31:18;8.05;;;5.13;;
75774;SDS011;64505;51.458;7.556;2023-05-07T09:33:21;8.52;;;5.60;;
75774;SDS011;64505;51.458;7.556;2023-05-07T09:37:30;10.07;;;5.63;;
75774;SDS011;64505;51.458;7.556;2023-05-07T09:39:41;8.93;;;5.97;;
75774;SDS011;64505;51.458;7.556;2023-05-07T09:41:47;9.70;;;6.45;;
75774;SDS011;64505;51.458;7.556;2023-05-07T09:43:55;9.75;;;6.63;;
75774;SDS011;64505;51.458;7.556;2023-05-07T09:45:57;11.82;;;6.25;;
75774;SDS011;64505;51.458;7.556;2023-05-07T09:48:00;8.95;;;6.32;;
75774;SDS011;64505;51.458;7.556;2023-05-07T09:50:06;10.70;;;7.00;;
75774;SDS011;64505;51.458;7.556;2023-05-07T09:52:09;10.20;;;6.50;;
75774;SDS011;64505;51.458;7.556;2023-05-07T09:54:11;9.48;;;6.80;;
75774;SDS011;64505;51.458;7.556;2023-05-07T09:56:14;9.60;;;6.60;;
75774;SDS011;64505;51.458;7.556;2023-05-07T09:58:18;10.23;;;6.22;;
75774;SDS011;64505;51.458;7.556;2023-05-07T10:00:22;10.32;;;7.63;;
75774;SDS011;64505;51.458;7.556;2023-05-07T10:02:25;11.45;;;7.00;;
75774;SDS011;64505;51.458;7.556;2023-05-07T10:04:31;7.97;;;5.60;;
75774;SDS011;64505;51.458;7.556;2023-05-07T10:06:34;8.27;;;5.80;;
75774;SDS011;64505;51.458;7.556;2023-05-07T10:08:36;6.50;;;4.25;;
75774;SDS011;64505;51.458;7.556;2023-05-07T10:10:38;5.97;;;4.28;;
75774;SDS011;64505;51.458;7.556;2023-05-07T10:12:41;9.05;;;5.20;;
75774;SDS011;64505;51.458;7.556;2023-05-07T10:14:43;11.05;;;5.20;;
75774;SDS011;64505;51.458;7.556;2023-05-07T10:16:46;10.38;;;5.03;;
75774;SDS011;64505;51.458;7.556;2023-05-07T10:18:48;7.75;;;4.53;;
75774;SDS011;64505;51.458;7.556;2023-05-07T10:20:51;9.30;;;4.55;;
75774;SDS011;64505;51.458;7.556;2023-05-07T10:22:55;7.20;;;4.72;;
75774;SDS011;64505;51.458;7.556;2023-05-07T10:24:59;8.13;;;5.40;;
75774;SDS011;64505;51.458;7.556;2023-05-07T10:27:11;10.95;;;6.10;;
75774;SDS011;64505;51.458;7.556;2023-05-07T10:29:17;10.50;;;6.65;;
75774;SDS011;64505;51.458;7.556;2023-05-07T10:33:28;10.00;;;6.72;;
75774;SDS011;64505;51.458;7.556;2023-05-07T10:35:32;9.38;;;6.38;;
75774;SDS011;64505;51.458;7.556;2023-05-07T10:37:40;11.23;;;6.82;;
75774;SDS011;64505;51.458;7.556;2023-05-07T10:39:42;10.57;;;6.32;;
75774;SDS011;64505;51.458;7.556;2023-05-07T10:41:44;11.05;;;6.88;;
75774;SDS011;64505;51.458;7.556;2023-05-07T10:43:45;10.20;;;6.22;;
75774;SDS011;64505;51.458;7.556;2023-05-07T10:48:26;8.60;;;5.15;;
75774;SDS011;64505;51.458;7.556;2023-05-07T10:50:30;6.00;;;3.53;;
75774;SDS011;64505;51.458;7.556;2023-05-07T10:52:32;5.80;;;4.15;;
75774;SDS011;64505;51.458;7.556;2023-05-07T10:54:33;7.82;;;4.25;;
75774;SDS011;64505;51.458;7.556;2023-05-07T10:56:38;7.95;;;3.03;;
75774;SDS011;64505;51.458;7.556;2023-05-07T10:58:41;6.18;;;2.92;;
75774;SDS011;64505;51.458;7.556;2023-05-07T11:00:42;7.13;;;4.05;;
75774;SDS011;64505;51.458;7.556;2023-05-07T11:05:21;6.18;;;4.05;;
75774;SDS011;64505;51.458;7.556;2023-05-07T11:07:27;6.03;;;3.08;;
75774;SDS011;64505;51.458;7.556;2023-05-07T11:11:53;6.65;;;4.35;;
75774;SDS011;64505;51.458;7.556;2023-05-07T11:13:57;8.65;;;4.18;;
75774;SDS011;64505;51.458;7.556;2023-05-07T11:15:58;6.25;;;3.70;;
75774;SDS011;64505;51.458;7.556;2023-05-07T11:18:00;11.65;;;7.25;;
75774;SDS011;64505;51.458;7.556;2023-05-07T11:20:02;10.48;;;6.68;;
75774;SDS011;64505;51.458;7.556;2023-05-07T11:22:09;8.68;;;5.25;;
75774;SDS011;64505;51.458;7.556;2023-05-07T11:24:37;8.63;;;5.45;;
75774;SDS011;64505;51.458;7.556;2023-05-07T11:28:45;9.27;;;6.10;;
75774;SDS011;64505;51.458;7.556;2023-05-07T11:30:47;10.88;;;7.03;;
75774;SDS011;64505;51.458;7.556;2023-05-07T11:32:49;13.80;;;10.23;;
75774;SDS011;64505;51.458;7.556;2023-05-07T11:34:51;9.60;;;6.78;;
75774;SDS011;64505;51.458;7.556;2023-05-07T11:36:54;10.63;;;6.95;;
75774;SDS011;64505;51.458;7.556;2023-05-07T11:38:57;9.90;;;5.45;;
75774;SDS011;64505;51.458;7.556;2023-05-07T11:40:58;7.47;;;4.38;;
75774;SDS011;64505;51.458;7.556;2023-05-07T11:43:10;6.53;;;4.03;;
75774;SDS011;64505;51.458;7.556;2023-05-07T11:45:12;8.18;;;4.25;;
75774;SDS011;64505;51.458;7.556;2023-05-07T11:47:25;12.38;;;7.25;;
75774;SDS011;64505;51.458;7.556;2023-05-07T11:49:27;9.52;;;6.20;;
75774;SDS011;64505;51.458;7.556;2023-05-07T11:51:28;13.07;;;6.38;;
75774;SDS011;64505;51.458;7.556;2023-05-07T11:53:35;8.77;;;5.53;;
75774;SDS011;64505;51.458;7.556;2023-05-07T11:55:44;11.45;;;5.88;;
75774;SDS011;64505;51.458;7.556;2023-05-07T11:57:46;8.27;;;5.70;;
75774;SDS011;64505;51.458;7.556;2023-05-07T11:59:47;9.68;;;5.60;;
75774;SDS011;64505;51.458;7.556;2023-05-07T12:01:49;9.43;;;5.28;;
75774;SDS011;64505;51.458;7.556;2023-05-07T12:03:51;8.75;;;5.80;;
75774;SDS011;64505;51.458;7.556;2023-05-07T12:05:55;8.88;;;5.38;;
75774;SDS011;64505;51.458;7.556;2023-05-07T12:07:57;9.25;;;5.00;;
75774;SDS011;64505;51.458;7.556;2023-05-07T12:09:59;8.75;;;5.25;;
75774;SDS011;64505;51.458;7.556;2023-05-07T12:12:04;7.75;;;5.13;;
75774;SDS011;64505;51.458;7.556;2023-05-07T12:14:05;8.02;;;5.10;;
75774;SDS011;64505;51.458;7.556;2023-05-07T12:16:11;6.72;;;4.45;;
75774;SDS011;64505;51.458;7.556;2023-05-07T12:18:12;8.27;;;4.38;;
75774;SDS011;64505;51.458;7.556;2023-05-07T12:20:14;7.80;;;5.40;;
75774;SDS011;64505;51.458;7.556;2023-05-07T12:22:16;8.55;;;5.97;;
75774;SDS011;64505;51.458;7.556;2023-05-07T12:24:19;10.18;;;5.72;;
75774;SDS011;64505;51.458;7.556;2023-05-07T12:26:22;9.27;;;5.50;;
75774;SDS011;64505;51.458;7.556;2023-05-07T12:28:23;9.90;;;6.47;;
75774;SDS011;64505;51.458;7.556;2023-05-07T12:30:27;8.82;;;5.68;;
75774;SDS011;64505;51.458;7.556;2023-05-07T12:32:29;9.38;;;5.90;;